sensor_id;sensor_type;location;lat;lon;timestamp;P1;durP1;ratioP1;P2;durP2;ratioP2
56269;SDS011;42176;43.240;27.880;2022-10-16T00:01:03;8.90;;;5.47;;
56269;SDS011;42176;43.240;27.880;2022-10-16T00:03:32;7.40;;;5.28;;
56269;SDS011;42176;43.240;27.880;2022-10-16T00:05:58;9.40;;;5.47;;
56269;SDS011;42176;43.240;27.880;2022-10-16T00:08:25;7.57;;;5.38;;
56269;SDS011;42176;43.240;27.880;2022-10-16T00:10:51;9.07;;;5.60;;
56269;SDS011;42176;43.240;27.880;2022-10-16T00:13:16;6.45;;;5.13;;
56269;SDS011;42176;43.240;27.880;2022-10-16T00:15:43;11.38;;;5.47;;
56269;SDS011;42176;43.240;27.880;2022-10-16T00:18:09;6.32;;;5.20;;
56269;SDS011;42176;43.240;27.880;2022-10-16T00:20:34;15.80;;;5.47;;
56269;SDS011;42176;43.240;27.880;2022-10-16T00:23:01;6.00;;;4.22;;
56269;SDS011;42176;43.240;27.880;2022-10-16T00:25:28;7.25;;;4.72;;
56269;SDS011;42176;43.240;27.880;2022-10-16T00:27:54;8.55;;;5.32;;
56269;SDS011;42176;43.240;27.880;2022-10-16T00:30:19;8.10;;;5.07;;
56269;SDS011;42176;43.240;27.880;2022-10-16T00:32:45;10.40;;;5.35;;
56269;SDS011;42176;43.240;27.880;2022-10-16T00:35:10;8.05;;;4.38;;
56269;SDS011;42176;43.240;27.880;2022-10-16T00:37:35;9.35;;;5.05;;
56269;SDS011;42176;43.240;27.880;2022-10-16T00:40:01;6.47;;;5.00;;
56269;SDS011;42176;43.240;27.880;2022-10-16T00:42:26;6.28;;;5.10;;
56269;SDS011;42176;43.240;27.880;2022-10-16T00:44:53;5.72;;;5.00;;
56269;SDS011;42176;43.240;27.880;2022-10-16T00:47:32;9.23;;;4.72;;
56269;SDS011;42176;43.240;27.880;2022-10-16T00:50:06;9.25;;;4.95;;
56269;SDS011;42176;43.240;27.880;2022-10-16T00:52:35;9.07;;;5.00;;
56269;SDS011;42176;43.240;27.880;2022-10-16T00:55:02;8.10;;;4.80;;
56269;SDS011;42176;43.240;27.880;2022-10-16T00:57:29;6.40;;;4.15;;
56269;SDS011;42176;43.240;27.880;2022-10-16T00:59:55;9.30;;;4.95;;
56269;SDS011;42176;43.240;27.880;2022-10-16T01:02:21;5.50;;;4.00;;
56269;SDS011;42176;43.240;27.880;2022-10-16T01:04:48;6.40;;;4.85;;
56269;SDS011;42176;43.240;27.880;2022-10-16T01:07:30;7.95;;;5.40;;
56269;SDS011;42176;43.240;27.880;2022-10-16T01:10:24;10.57;;;4.95;;
56269;SDS011;42176;43.240;27.880;2022-10-16T01:29:16;5.63;;;4.00;;
56269;SDS011;42176;43.240;27.880;2022-10-16T01:31:47;9.68;;;5.20;;
56269;SDS011;42176;43.240;27.880;2022-10-16T01:34:20;12.10;;;4.18;;
56269;SDS011;42176;43.240;27.880;2022-10-16T01:36:54;5.22;;;3.85;;
56269;SDS011;42176;43.240;27.880;2022-10-16T01:39:27;8.25;;;4.07;;
56269;SDS011;42176;43.240;27.880;2022-10-16T01:44:42;8.20;;;3.60;;
56269;SDS011;42176;43.240;27.880;2022-10-16T01:47:10;7.68;;;3.88;;
56269;SDS011;42176;43.240;27.880;2022-10-16T01:49:38;4.20;;;3.75;;
56269;SDS011;42176;43.240;27.880;2022-10-16T01:52:07;6.18;;;3.13;;
56269;SDS011;42176;43.240;27.880;2022-10-16T01:54:37;5.18;;;3.25;;
56269;SDS011;42176;43.240;27.880;2022-10-16T01:57:05;5.95;;;3.17;;
56269;SDS011;42176;43.240;27.880;2022-10-16T01:59:35;5.40;;;3.85;;
56269;SDS011;42176;43.240;27.880;2022-10-16T02:02:07;4.93;;;3.65;;
56269;SDS011;42176;43.240;27.880;2022-10-16T02:04:38;6.03;;;3.83;;
56269;SDS011;42176;43.240;27.880;2022-10-16T02:07:07;4.37;;;2.97;;
56269;SDS011;42176;43.240;27.880;2022-10-16T02:09:33;12.50;;;3.72;;
56269;SDS011;42176;43.240;27.880;2022-10-16T02:12:01;5.80;;;3.58;;
56269;SDS011;42176;43.240;27.880;2022-10-16T02:14:33;4.07;;;3.17;;
56269;SDS011;42176;43.240;27.880;2022-10-16T02:17:09;3.00;;;2.80;;
56269;SDS011;42176;43.240;27.880;2022-10-16T02:19:39;4.32;;;3.08;;
56269;SDS011;42176;43.240;27.880;2022-10-16T02:22:06;3.95;;;3.55;;
56269;SDS011;42176;43.240;27.880;2022-10-16T02:27:40;3.58;;;3.28;;
56269;SDS011;42176;43.240;27.880;2022-10-16T02:32:55;4.55;;;2.53;;
56269;SDS011;42176;43.240;27.880;2022-10-16T02:35:23;6.18;;;3.28;;
56269;SDS011;42176;43.240;27.880;2022-10-16T02:37:50;4.68;;;3.47;;
56269;SDS011;42176;43.240;27.880;2022-10-16T02:40:17;2.97;;;2.60;;
56269;SDS011;42176;43.240;27.880;2022-10-16T02:42:44;8.48;;;3.08;;
56269;SDS011;42176;43.240;27.880;2022-10-16T02:45:10;5.15;;;3.72;;
56269;SDS011;42176;43.240;27.880;2022-10-16T02:47:36;5.72;;;3.38;;
56269;SDS011;42176;43.240;27.880;2022-10-16T02:50:02;5.43;;;2.70;;
56269;SDS011;42176;43.240;27.880;2022-10-16T02:52:27;4.85;;;3.08;;
56269;SDS011;42176;43.240;27.880;2022-10-16T02:54:53;12.25;;;3.83;;
56269;SDS011;42176;43.240;27.880;2022-10-16T02:57:18;8.18;;;3.42;;
56269;SDS011;42176;43.240;27.880;2022-10-16T02:59:44;4.05;;;3.45;;
56269;SDS011;42176;43.240;27.880;2022-10-16T03:02:10;8.20;;;2.85;;
56269;SDS011;42176;43.240;27.880;2022-10-16T03:04:36;3.22;;;2.83;;
56269;SDS011;42176;43.240;27.880;2022-10-16T03:07:01;4.50;;;3.20;;
56269;SDS011;42176;43.240;27.880;2022-10-16T03:09:27;4.57;;;2.60;;
56269;SDS011;42176;43.240;27.880;2022-10-16T03:11:52;7.43;;;3.03;;
56269;SDS011;42176;43.240;27.880;2022-10-16T03:14:18;5.00;;;3.42;;
56269;SDS011;42176;43.240;27.880;2022-10-16T03:16:43;4.32;;;2.67;;
56269;SDS011;42176;43.240;27.880;2022-10-16T03:19:09;7.63;;;2.67;;
56269;SDS011;42176;43.240;27.880;2022-10-16T03:21:34;4.07;;;2.83;;
56269;SDS011;42176;43.240;27.880;2022-10-16T03:24:00;6.63;;;3.20;;
56269;SDS011;42176;43.240;27.880;2022-10-16T03:26:25;4.13;;;2.25;;
56269;SDS011;42176;43.240;27.880;2022-10-16T03:28:51;5.50;;;3.50;;
56269;SDS011;42176;43.240;27.880;2022-10-16T03:31:16;3.50;;;2.90;;
56269;SDS011;42176;43.240;27.880;2022-10-16T03:33:42;5.22;;;3.13;;
56269;SDS011;42176;43.240;27.880;2022-10-16T03:36:07;4.53;;;3.08;;
56269;SDS011;42176;43.240;27.880;2022-10-16T03:38:32;3.95;;;3.30;;
56269;SDS011;42176;43.240;27.880;2022-10-16T03:40:58;9.50;;;3.17;;
56269;SDS011;42176;43.240;27.880;2022-10-16T03:43:23;3.30;;;2.67;;
56269;SDS011;42176;43.240;27.880;2022-10-16T03:45:52;4.03;;;3.47;;
56269;SDS011;42176;43.240;27.880;2022-10-16T03:48:18;6.00;;;3.30;;
56269;SDS011;42176;43.240;27.880;2022-10-16T03:50:44;5.60;;;2.60;;
56269;SDS011;42176;43.240;27.880;2022-10-16T03:53:11;5.93;;;3.40;;
56269;SDS011;42176;43.240;27.880;2022-10-16T03:55:36;4.90;;;2.90;;
56269;SDS011;42176;43.240;27.880;2022-10-16T03:58:01;9.18;;;3.40;;
56269;SDS011;42176;43.240;27.880;2022-10-16T04:00:28;4.00;;;2.78;;
56269;SDS011;42176;43.240;27.880;2022-10-16T04:02:54;6.03;;;3.78;;
56269;SDS011;42176;43.240;27.880;2022-10-16T04:05:19;4.30;;;3.42;;
56269;SDS011;42176;43.240;27.880;2022-10-16T04:07:45;4.68;;;2.80;;
56269;SDS011;42176;43.240;27.880;2022-10-16T04:10:11;6.43;;;2.72;;
56269;SDS011;42176;43.240;27.880;2022-10-16T04:12:36;4.00;;;3.15;;
56269;SDS011;42176;43.240;27.880;2022-10-16T04:15:02;4.18;;;3.28;;
56269;SDS011;42176;43.240;27.880;2022-10-16T04:17:28;3.92;;;3.22;;
56269;SDS011;42176;43.240;27.880;2022-10-16T04:19:53;4.75;;;3.40;;
56269;SDS011;42176;43.240;27.880;2022-10-16T04:22:18;5.85;;;3.35;;
56269;SDS011;42176;43.240;27.880;2022-10-16T04:24:44;5.50;;;3.25;;
56269;SDS011;42176;43.240;27.880;2022-10-16T04:27:09;4.28;;;3.00;;
56269;SDS011;42176;43.240;27.880;2022-10-16T04:29:35;6.20;;;3.33;;
56269;SDS011;42176;43.240;27.880;2022-10-16T04:32:00;6.88;;;3.90;;
56269;SDS011;42176;43.240;27.880;2022-10-16T04:34:26;6.38;;;3.95;;
56269;SDS011;42176;43.240;27.880;2022-10-16T04:36:51;4.93;;;3.30;;
56269;SDS011;42176;43.240;27.880;2022-10-16T04:39:16;5.35;;;3.63;;
56269;SDS011;42176;43.240;27.880;2022-10-16T04:41:43;5.60;;;3.35;;
56269;SDS011;42176;43.240;27.880;2022-10-16T04:44:08;4.88;;;3.60;;
56269;SDS011;42176;43.240;27.880;2022-10-16T04:46:34;6.85;;;3.10;;
56269;SDS011;42176;43.240;27.880;2022-10-16T04:48:59;4.28;;;3.67;;
56269;SDS011;42176;43.240;27.880;2022-10-16T04:51:25;7.25;;;3.88;;
56269;SDS011;42176;43.240;27.880;2022-10-16T04:53:51;5.57;;;3.85;;
56269;SDS011;42176;43.240;27.880;2022-10-16T04:56:16;5.75;;;3.88;;
56269;SDS011;42176;43.240;27.880;2022-10-16T04:58:42;8.13;;;4.25;;
56269;SDS011;42176;43.240;27.880;2022-10-16T05:01:07;6.07;;;4.45;;
56269;SDS011;42176;43.240;27.880;2022-10-16T05:03:33;10.07;;;3.83;;
56269;SDS011;42176;43.240;27.880;2022-10-16T05:05:59;3.67;;;3.22;;
56269;SDS011;42176;43.240;27.880;2022-10-16T05:08:25;6.78;;;3.42;;
56269;SDS011;42176;43.240;27.880;2022-10-16T05:10:50;6.78;;;3.80;;
56269;SDS011;42176;43.240;27.880;2022-10-16T05:13:15;4.82;;;3.55;;
56269;SDS011;42176;43.240;27.880;2022-10-16T05:15:41;5.15;;;3.25;;
56269;SDS011;42176;43.240;27.880;2022-10-16T05:18:07;5.43;;;3.75;;
56269;SDS011;42176;43.240;27.880;2022-10-16T05:20:34;3.90;;;3.28;;
56269;SDS011;42176;43.240;27.880;2022-10-16T05:22:59;6.05;;;3.40;;
56269;SDS011;42176;43.240;27.880;2022-10-16T05:25:25;3.60;;;3.15;;
56269;SDS011;42176;43.240;27.880;2022-10-16T05:27:50;3.55;;;3.00;;
56269;SDS011;42176;43.240;27.880;2022-10-16T05:30:16;3.22;;;2.85;;
56269;SDS011;42176;43.240;27.880;2022-10-16T05:32:46;3.55;;;2.67;;
56269;SDS011;42176;43.240;27.880;2022-10-16T05:35:12;3.28;;;2.58;;
56269;SDS011;42176;43.240;27.880;2022-10-16T05:37:38;3.00;;;2.42;;
56269;SDS011;42176;43.240;27.880;2022-10-16T05:40:03;4.93;;;3.03;;
56269;SDS011;42176;43.240;27.880;2022-10-16T05:42:29;4.45;;;2.67;;
56269;SDS011;42176;43.240;27.880;2022-10-16T05:44:55;8.35;;;2.50;;
56269;SDS011;42176;43.240;27.880;2022-10-16T05:47:21;4.45;;;2.58;;
56269;SDS011;42176;43.240;27.880;2022-10-16T05:49:46;5.90;;;3.17;;
56269;SDS011;42176;43.240;27.880;2022-10-16T05:52:12;2.67;;;2.47;;
56269;SDS011;42176;43.240;27.880;2022-10-16T05:54:37;3.47;;;2.90;;
56269;SDS011;42176;43.240;27.880;2022-10-16T05:57:03;6.30;;;2.90;;
56269;SDS011;42176;43.240;27.880;2022-10-16T05:59:30;4.70;;;3.28;;
56269;SDS011;42176;43.240;27.880;2022-10-16T06:01:56;5.95;;;3.63;;
56269;SDS011;42176;43.240;27.880;2022-10-16T06:04:21;5.18;;;3.65;;
56269;SDS011;42176;43.240;27.880;2022-10-16T06:06:47;9.52;;;4.03;;
56269;SDS011;42176;43.240;27.880;2022-10-16T06:09:12;4.30;;;2.70;;
56269;SDS011;42176;43.240;27.880;2022-10-16T06:11:38;6.25;;;3.72;;
56269;SDS011;42176;43.240;27.880;2022-10-16T06:14:03;3.50;;;3.20;;
56269;SDS011;42176;43.240;27.880;2022-10-16T06:16:32;3.55;;;3.10;;
56269;SDS011;42176;43.240;27.880;2022-10-16T06:18:58;9.00;;;3.13;;
56269;SDS011;42176;43.240;27.880;2022-10-16T06:21:28;3.22;;;2.92;;
56269;SDS011;42176;43.240;27.880;2022-10-16T06:23:54;5.55;;;3.25;;
56269;SDS011;42176;43.240;27.880;2022-10-16T06:26:22;2.75;;;2.53;;
56269;SDS011;42176;43.240;27.880;2022-10-16T06:28:50;2.17;;;1.90;;
56269;SDS011;42176;43.240;27.880;2022-10-16T06:31:16;3.08;;;2.20;;
56269;SDS011;42176;43.240;27.880;2022-10-16T06:33:42;6.00;;;2.40;;
56269;SDS011;42176;43.240;27.880;2022-10-16T06:38:38;2.33;;;2.13;;
56269;SDS011;42176;43.240;27.880;2022-10-16T06:41:04;3.45;;;1.85;;
56269;SDS011;42176;43.240;27.880;2022-10-16T06:43:31;2.42;;;1.90;;
56269;SDS011;42176;43.240;27.880;2022-10-16T06:46:03;1.90;;;1.70;;
56269;SDS011;42176;43.240;27.880;2022-10-16T06:48:30;4.10;;;1.80;;
56269;SDS011;42176;43.240;27.880;2022-10-16T06:53:30;2.60;;;1.77;;
56269;SDS011;42176;43.240;27.880;2022-10-16T06:56:06;1.77;;;1.60;;
56269;SDS011;42176;43.240;27.880;2022-10-16T06:58:40;3.53;;;1.75;;
56269;SDS011;42176;43.240;27.880;2022-10-16T07:01:06;1.80;;;1.67;;
56269;SDS011;42176;43.240;27.880;2022-10-16T07:03:31;3.92;;;1.33;;
56269;SDS011;42176;43.240;27.880;2022-10-16T07:06:00;5.95;;;1.95;;
56269;SDS011;42176;43.240;27.880;2022-10-16T07:08:31;2.13;;;1.70;;
56269;SDS011;42176;43.240;27.880;2022-10-16T07:10:58;2.47;;;2.10;;
56269;SDS011;42176;43.240;27.880;2022-10-16T07:13:25;2.03;;;1.27;;
56269;SDS011;42176;43.240;27.880;2022-10-16T07:15:50;2.90;;;1.20;;
56269;SDS011;42176;43.240;27.880;2022-10-16T07:18:19;5.82;;;1.30;;
56269;SDS011;42176;43.240;27.880;2022-10-16T07:20:44;8.35;;;1.50;;
56269;SDS011;42176;43.240;27.880;2022-10-16T07:23:10;3.35;;;1.60;;
56269;SDS011;42176;43.240;27.880;2022-10-16T07:25:37;4.13;;;1.50;;
56269;SDS011;42176;43.240;27.880;2022-10-16T07:28:03;2.40;;;1.50;;
56269;SDS011;42176;43.240;27.880;2022-10-16T07:30:29;2.33;;;1.45;;
56269;SDS011;42176;43.240;27.880;2022-10-16T07:32:59;1.65;;;1.55;;
56269;SDS011;42176;43.240;27.880;2022-10-16T07:35:25;5.88;;;2.00;;
56269;SDS011;42176;43.240;27.880;2022-10-16T07:37:50;3.05;;;1.70;;
56269;SDS011;42176;43.240;27.880;2022-10-16T07:40:16;10.23;;;2.67;;
56269;SDS011;42176;43.240;27.880;2022-10-16T07:42:41;2.85;;;1.60;;
56269;SDS011;42176;43.240;27.880;2022-10-16T07:45:07;5.57;;;1.52;;
56269;SDS011;42176;43.240;27.880;2022-10-16T07:47:32;2.35;;;1.27;;
56269;SDS011;42176;43.240;27.880;2022-10-16T07:50:01;1.73;;;1.33;;
56269;SDS011;42176;43.240;27.880;2022-10-16T07:52:29;1.48;;;1.38;;
56269;SDS011;42176;43.240;27.880;2022-10-16T07:54:55;3.00;;;1.50;;
56269;SDS011;42176;43.240;27.880;2022-10-16T07:57:26;4.13;;;1.45;;
56269;SDS011;42176;43.240;27.880;2022-10-16T07:59:51;2.42;;;1.60;;
56269;SDS011;42176;43.240;27.880;2022-10-16T08:02:17;1.77;;;1.35;;
56269;SDS011;42176;43.240;27.880;2022-10-16T08:04:42;2.25;;;1.48;;
56269;SDS011;42176;43.240;27.880;2022-10-16T08:07:08;4.68;;;1.83;;
56269;SDS011;42176;43.240;27.880;2022-10-16T08:09:34;1.65;;;1.40;;
56269;SDS011;42176;43.240;27.880;2022-10-16T08:12:02;1.83;;;1.60;;
56269;SDS011;42176;43.240;27.880;2022-10-16T08:14:27;2.00;;;1.50;;
56269;SDS011;42176;43.240;27.880;2022-10-16T08:16:53;6.00;;;1.77;;
56269;SDS011;42176;43.240;27.880;2022-10-16T08:19:18;1.98;;;1.42;;
56269;SDS011;42176;43.240;27.880;2022-10-16T08:21:46;2.97;;;1.60;;
56269;SDS011;42176;43.240;27.880;2022-10-16T08:24:12;1.52;;;1.42;;
56269;SDS011;42176;43.240;27.880;2022-10-16T08:26:41;3.60;;;1.70;;
56269;SDS011;42176;43.240;27.880;2022-10-16T08:29:06;5.07;;;1.60;;
56269;SDS011;42176;43.240;27.880;2022-10-16T08:31:35;5.10;;;1.48;;
56269;SDS011;42176;43.240;27.880;2022-10-16T08:34:00;2.17;;;1.40;;
56269;SDS011;42176;43.240;27.880;2022-10-16T08:36:28;3.15;;;1.50;;
56269;SDS011;42176;43.240;27.880;2022-10-16T08:38:53;3.38;;;1.70;;
56269;SDS011;42176;43.240;27.880;2022-10-16T08:49:58;3.47;;;1.25;;
56269;SDS011;42176;43.240;27.880;2022-10-16T08:52:29;2.38;;;1.30;;
56269;SDS011;42176;43.240;27.880;2022-10-16T08:54:58;1.67;;;1.10;;
56269;SDS011;42176;43.240;27.880;2022-10-16T08:57:25;1.52;;;1.17;;
56269;SDS011;42176;43.240;27.880;2022-10-16T08:59:52;3.03;;;1.65;;
56269;SDS011;42176;43.240;27.880;2022-10-16T09:07:22;6.72;;;1.80;;
56269;SDS011;42176;43.240;27.880;2022-10-16T09:10:00;10.43;;;2.35;;
56269;SDS011;42176;43.240;27.880;2022-10-16T09:12:43;1.50;;;1.40;;
56269;SDS011;42176;43.240;27.880;2022-10-16T09:15:34;4.32;;;1.67;;
56269;SDS011;42176;43.240;27.880;2022-10-16T09:18:35;5.00;;;1.95;;
56269;SDS011;42176;43.240;27.880;2022-10-16T09:23:57;3.80;;;1.80;;
56269;SDS011;42176;43.240;27.880;2022-10-16T09:26:29;1.30;;;0.95;;
56269;SDS011;42176;43.240;27.880;2022-10-16T09:28:54;5.00;;;1.77;;
56269;SDS011;42176;43.240;27.880;2022-10-16T09:31:21;2.78;;;1.20;;
56269;SDS011;42176;43.240;27.880;2022-10-16T09:33:52;10.45;;;2.50;;
56269;SDS011;42176;43.240;27.880;2022-10-16T09:36:20;3.78;;;1.95;;
56269;SDS011;42176;43.240;27.880;2022-10-16T09:38:48;3.95;;;1.50;;
56269;SDS011;42176;43.240;27.880;2022-10-16T09:41:18;4.78;;;1.85;;
56269;SDS011;42176;43.240;27.880;2022-10-16T09:43:55;4.82;;;2.72;;
56269;SDS011;42176;43.240;27.880;2022-10-16T09:49:37;2.55;;;1.30;;
56269;SDS011;42176;43.240;27.880;2022-10-16T09:51:44;3.45;;;1.50;;
56269;SDS011;42176;43.240;27.880;2022-10-16T09:56:40;1.30;;;1.20;;
56269;SDS011;42176;43.240;27.880;2022-10-16T09:59:10;1.83;;;0.90;;
56269;SDS011;42176;43.240;27.880;2022-10-16T10:04:16;11.65;;;2.25;;
56269;SDS011;42176;43.240;27.880;2022-10-16T10:09:18;4.93;;;2.63;;
56269;SDS011;42176;43.240;27.880;2022-10-16T10:11:51;7.68;;;1.63;;
56269;SDS011;42176;43.240;27.880;2022-10-16T10:14:25;9.30;;;2.10;;
56269;SDS011;42176;43.240;27.880;2022-10-16T10:19:41;5.22;;;1.55;;
56269;SDS011;42176;43.240;27.880;2022-10-16T10:22:18;3.88;;;1.55;;
56269;SDS011;42176;43.240;27.880;2022-10-16T10:24:56;7.32;;;1.30;;
56269;SDS011;42176;43.240;27.880;2022-10-16T10:27:21;1.65;;;1.35;;
56269;SDS011;42176;43.240;27.880;2022-10-16T10:47:01;7.38;;;1.92;;
56269;SDS011;42176;43.240;27.880;2022-10-16T10:49:43;2.45;;;1.10;;
56269;SDS011;42176;43.240;27.880;2022-10-16T11:08:35;6.60;;;1.48;;
56269;SDS011;42176;43.240;27.880;2022-10-16T11:11:11;8.00;;;1.60;;
56269;SDS011;42176;43.240;27.880;2022-10-16T11:16:27;1.48;;;1.35;;
56269;SDS011;42176;43.240;27.880;2022-10-16T11:18:59;2.03;;;1.58;;
56269;SDS011;42176;43.240;27.880;2022-10-16T11:21:51;1.33;;;1.23;;
56269;SDS011;42176;43.240;27.880;2022-10-16T11:24:45;3.35;;;1.50;;
56269;SDS011;42176;43.240;27.880;2022-10-16T11:27:23;1.63;;;1.20;;
56269;SDS011;42176;43.240;27.880;2022-10-16T11:29:59;3.80;;;1.70;;
56269;SDS011;42176;43.240;27.880;2022-10-16T11:32:29;1.13;;;1.05;;
56269;SDS011;42176;43.240;27.880;2022-10-16T11:35:04;3.40;;;1.38;;
56269;SDS011;42176;43.240;27.880;2022-10-16T11:37:44;5.28;;;1.50;;
56269;SDS011;42176;43.240;27.880;2022-10-16T11:40:25;3.08;;;1.40;;
56269;SDS011;42176;43.240;27.880;2022-10-16T11:42:59;2.72;;;1.70;;
56269;SDS011;42176;43.240;27.880;2022-10-16T11:45:39;2.97;;;1.55;;
56269;SDS011;42176;43.240;27.880;2022-10-16T11:50:58;3.28;;;1.45;;
56269;SDS011;42176;43.240;27.880;2022-10-16T11:53:42;4.60;;;1.58;;
56269;SDS011;42176;43.240;27.880;2022-10-16T11:56:16;2.47;;;1.10;;
56269;SDS011;42176;43.240;27.880;2022-10-16T11:58:55;2.28;;;1.60;;
56269;SDS011;42176;43.240;27.880;2022-10-16T12:04:01;7.03;;;1.92;;
56269;SDS011;42176;43.240;27.880;2022-10-16T12:09:26;13.57;;;7.38;;
56269;SDS011;42176;43.240;27.880;2022-10-16T12:11:54;2.65;;;1.70;;
56269;SDS011;42176;43.240;27.880;2022-10-16T12:17:23;4.63;;;1.75;;
56269;SDS011;42176;43.240;27.880;2022-10-16T12:20:33;2.78;;;1.35;;
56269;SDS011;42176;43.240;27.880;2022-10-16T12:22:59;2.50;;;1.35;;
56269;SDS011;42176;43.240;27.880;2022-10-16T12:25:37;2.75;;;1.67;;
56269;SDS011;42176;43.240;27.880;2022-10-16T12:30:55;3.10;;;1.40;;
56269;SDS011;42176;43.240;27.880;2022-10-16T12:33:33;4.75;;;1.92;;
56269;SDS011;42176;43.240;27.880;2022-10-16T12:36:01;4.32;;;2.75;;
56269;SDS011;42176;43.240;27.880;2022-10-16T12:41:06;6.13;;;2.10;;
56269;SDS011;42176;43.240;27.880;2022-10-16T12:43:41;3.50;;;1.77;;
56269;SDS011;42176;43.240;27.880;2022-10-16T12:48:42;3.33;;;2.25;;
56269;SDS011;42176;43.240;27.880;2022-10-16T12:54:03;2.15;;;1.95;;
56269;SDS011;42176;43.240;27.880;2022-10-16T12:59:42;7.60;;;2.10;;
56269;SDS011;42176;43.240;27.880;2022-10-16T13:08:19;4.32;;;2.20;;
56269;SDS011;42176;43.240;27.880;2022-10-16T13:29:33;4.95;;;2.45;;
56269;SDS011;42176;43.240;27.880;2022-10-16T13:32:09;4.13;;;2.35;;
56269;SDS011;42176;43.240;27.880;2022-10-16T13:34:46;3.30;;;2.13;;
56269;SDS011;42176;43.240;27.880;2022-10-16T13:37:24;4.28;;;2.08;;
56269;SDS011;42176;43.240;27.880;2022-10-16T13:39:50;3.10;;;2.17;;
56269;SDS011;42176;43.240;27.880;2022-10-16T13:42:27;2.42;;;1.85;;
56269;SDS011;42176;43.240;27.880;2022-10-16T13:44:54;1.92;;;1.73;;
56269;SDS011;42176;43.240;27.880;2022-10-16T13:47:25;3.78;;;2.03;;
56269;SDS011;42176;43.240;27.880;2022-10-16T13:50:09;3.53;;;1.52;;
56269;SDS011;42176;43.240;27.880;2022-10-16T13:52:40;8.27;;;1.90;;
56269;SDS011;42176;43.240;27.880;2022-10-16T13:55:16;5.00;;;1.60;;
56269;SDS011;42176;43.240;27.880;2022-10-16T13:57:43;3.03;;;1.52;;
56269;SDS011;42176;43.240;27.880;2022-10-16T14:00:25;2.45;;;1.73;;
56269;SDS011;42176;43.240;27.880;2022-10-16T14:03:05;5.30;;;1.92;;
56269;SDS011;42176;43.240;27.880;2022-10-16T14:05:48;1.98;;;1.70;;
56269;SDS011;42176;43.240;27.880;2022-10-16T14:08:24;2.40;;;1.40;;
56269;SDS011;42176;43.240;27.880;2022-10-16T14:10:59;1.75;;;1.63;;
56269;SDS011;42176;43.240;27.880;2022-10-16T14:13:29;3.28;;;1.50;;
56269;SDS011;42176;43.240;27.880;2022-10-16T14:15:59;5.00;;;1.27;;
56269;SDS011;42176;43.240;27.880;2022-10-16T14:18:30;2.28;;;1.60;;
56269;SDS011;42176;43.240;27.880;2022-10-16T14:21:02;2.63;;;1.45;;
56269;SDS011;42176;43.240;27.880;2022-10-16T14:23:30;2.65;;;1.45;;
56269;SDS011;42176;43.240;27.880;2022-10-16T14:28:39;3.00;;;1.38;;
56269;SDS011;42176;43.240;27.880;2022-10-16T14:33:52;1.98;;;1.30;;
56269;SDS011;42176;43.240;27.880;2022-10-16T14:36:18;4.85;;;1.60;;
56269;SDS011;42176;43.240;27.880;2022-10-16T14:39:05;3.35;;;2.45;;
56269;SDS011;42176;43.240;27.880;2022-10-16T14:41:46;2.03;;;1.50;;
56269;SDS011;42176;43.240;27.880;2022-10-16T14:44:13;4.80;;;2.40;;
56269;SDS011;42176;43.240;27.880;2022-10-16T14:46:41;4.63;;;2.53;;
56269;SDS011;42176;43.240;27.880;2022-10-16T14:51:34;10.52;;;4.38;;
56269;SDS011;42176;43.240;27.880;2022-10-16T14:54:00;8.50;;;4.15;;
56269;SDS011;42176;43.240;27.880;2022-10-16T14:56:30;7.95;;;2.88;;
56269;SDS011;42176;43.240;27.880;2022-10-16T15:01:25;2.53;;;2.08;;
56269;SDS011;42176;43.240;27.880;2022-10-16T15:03:50;4.07;;;2.17;;
56269;SDS011;42176;43.240;27.880;2022-10-16T15:06:17;5.07;;;2.42;;
56269;SDS011;42176;43.240;27.880;2022-10-16T15:08:43;7.00;;;2.20;;
56269;SDS011;42176;43.240;27.880;2022-10-16T15:11:27;6.45;;;2.20;;
56269;SDS011;42176;43.240;27.880;2022-10-16T15:13:52;3.45;;;1.95;;
56269;SDS011;42176;43.240;27.880;2022-10-16T15:16:18;4.90;;;3.00;;
56269;SDS011;42176;43.240;27.880;2022-10-16T15:18:43;7.40;;;2.40;;
56269;SDS011;42176;43.240;27.880;2022-10-16T15:21:30;4.57;;;2.00;;
56269;SDS011;42176;43.240;27.880;2022-10-16T15:23:57;8.35;;;1.98;;
56269;SDS011;42176;43.240;27.880;2022-10-16T15:26:24;4.45;;;2.08;;
56269;SDS011;42176;43.240;27.880;2022-10-16T15:28:54;4.80;;;1.98;;
56269;SDS011;42176;43.240;27.880;2022-10-16T15:31:20;3.67;;;2.10;;
56269;SDS011;42176;43.240;27.880;2022-10-16T15:33:49;3.67;;;2.00;;
56269;SDS011;42176;43.240;27.880;2022-10-16T15:36:27;3.75;;;2.10;;
56269;SDS011;42176;43.240;27.880;2022-10-16T15:38:55;3.38;;;1.90;;
56269;SDS011;42176;43.240;27.880;2022-10-16T15:41:21;5.20;;;2.78;;
56269;SDS011;42176;43.240;27.880;2022-10-16T15:43:50;5.05;;;2.65;;
56269;SDS011;42176;43.240;27.880;2022-10-16T15:46:20;6.70;;;2.35;;
56269;SDS011;42176;43.240;27.880;2022-10-16T15:48:50;6.40;;;2.85;;
56269;SDS011;42176;43.240;27.880;2022-10-16T15:51:20;10.82;;;3.67;;
56269;SDS011;42176;43.240;27.880;2022-10-16T15:53:45;9.35;;;4.35;;
56269;SDS011;42176;43.240;27.880;2022-10-16T15:56:12;6.45;;;3.33;;
56269;SDS011;42176;43.240;27.880;2022-10-16T15:58:38;8.82;;;4.40;;
56269;SDS011;42176;43.240;27.880;2022-10-16T16:01:03;5.63;;;4.13;;
56269;SDS011;42176;43.240;27.880;2022-10-16T16:03:34;6.15;;;4.20;;
56269;SDS011;42176;43.240;27.880;2022-10-16T16:06:04;7.38;;;5.15;;
56269;SDS011;42176;43.240;27.880;2022-10-16T16:08:32;8.88;;;4.43;;
56269;SDS011;42176;43.240;27.880;2022-10-16T16:11:01;10.02;;;5.47;;
56269;SDS011;42176;43.240;27.880;2022-10-16T16:13:31;7.55;;;5.07;;
56269;SDS011;42176;43.240;27.880;2022-10-16T16:15:57;9.48;;;4.85;;
56269;SDS011;42176;43.240;27.880;2022-10-16T16:18:23;12.13;;;6.03;;
56269;SDS011;42176;43.240;27.880;2022-10-16T16:20:49;11.02;;;5.20;;
56269;SDS011;42176;43.240;27.880;2022-10-16T16:23:21;7.63;;;4.50;;
56269;SDS011;42176;43.240;27.880;2022-10-16T16:26:02;8.45;;;4.47;;
56269;SDS011;42176;43.240;27.880;2022-10-16T16:28:51;5.47;;;3.10;;
56269;SDS011;42176;43.240;27.880;2022-10-16T16:31:17;9.20;;;4.13;;
56269;SDS011;42176;43.240;27.880;2022-10-16T16:33:43;10.70;;;4.78;;
56269;SDS011;42176;43.240;27.880;2022-10-16T16:36:09;11.85;;;4.20;;
56269;SDS011;42176;43.240;27.880;2022-10-16T16:38:34;7.93;;;4.85;;
56269;SDS011;42176;43.240;27.880;2022-10-16T16:41:10;7.03;;;4.07;;
56269;SDS011;42176;43.240;27.880;2022-10-16T16:43:46;12.32;;;5.60;;
56269;SDS011;42176;43.240;27.880;2022-10-16T16:46:12;16.58;;;7.53;;
56269;SDS011;42176;43.240;27.880;2022-10-16T16:48:39;7.80;;;4.68;;
56269;SDS011;42176;43.240;27.880;2022-10-16T16:51:06;7.35;;;4.28;;
56269;SDS011;42176;43.240;27.880;2022-10-16T16:53:48;11.43;;;5.28;;
56269;SDS011;42176;43.240;27.880;2022-10-16T16:56:14;7.32;;;4.22;;
56269;SDS011;42176;43.240;27.880;2022-10-16T16:58:40;8.80;;;4.35;;
56269;SDS011;42176;43.240;27.880;2022-10-16T17:01:06;16.05;;;4.70;;
56269;SDS011;42176;43.240;27.880;2022-10-16T17:03:34;11.45;;;4.75;;
56269;SDS011;42176;43.240;27.880;2022-10-16T17:06:01;7.85;;;4.72;;
56269;SDS011;42176;43.240;27.880;2022-10-16T17:08:32;9.90;;;4.78;;
56269;SDS011;42176;43.240;27.880;2022-10-16T17:10:59;10.43;;;4.68;;
56269;SDS011;42176;43.240;27.880;2022-10-16T17:13:25;10.15;;;4.15;;
56269;SDS011;42176;43.240;27.880;2022-10-16T17:15:52;7.78;;;4.72;;
56269;SDS011;42176;43.240;27.880;2022-10-16T17:18:18;7.88;;;4.20;;
56269;SDS011;42176;43.240;27.880;2022-10-16T17:20:44;11.93;;;4.60;;